createdAt,value
2018-07-13T00:04:35.464Z,56.20
2018-07-13T00:07:04.050Z,56.30
2018-07-13T00:09:32.363Z,56.20
2018-07-13T00:12:00.666Z,56.20
2018-07-13T00:14:29.041Z,56.20
2018-07-13T00:19:27.211Z,56.20
2018-07-13T00:21:55.528Z,56.20
2018-07-13T00:26:51.904Z,56.10
2018-07-13T00:29:20.306Z,56.10
2018-07-13T00:31:48.623Z,56.30
2018-07-13T00:34:16.911Z,56.30
2018-07-13T00:39:14.024Z,56.20
2018-07-13T00:41:42.350Z,56.20
2018-07-13T00:44:10.787Z,56.20
2018-07-13T00:46:39.097Z,56.30
2018-07-13T00:51:35.466Z,56.30
2018-07-13T00:54:03.794Z,56.30
2018-07-13T00:56:32.106Z,56.20
2018-07-13T00:59:00.563Z,56.30
2018-07-13T01:01:28.921Z,56.30
2018-07-13T01:03:57.191Z,56.40
2018-07-13T01:06:25.480Z,56.30
2018-07-13T01:08:53.785Z,56.50
2018-07-13T01:11:22.096Z,56.40
2018-07-13T01:13:50.596Z,56.40
2018-07-13T01:16:18.908Z,56.40
2018-07-13T01:18:47.207Z,56.40
2018-07-13T01:21:15.534Z,56.60
2018-07-13T01:23:43.863Z,56.60
2018-07-13T01:26:12.305Z,56.40
2018-07-13T01:28:40.589Z,56.40
2018-07-13T01:31:08.982Z,56.50
2018-07-13T01:33:37.285Z,56.30
2018-07-13T01:36:05.739Z,56.40
2018-07-13T01:38:34.059Z,56.30
2018-07-13T01:41:03.127Z,56.50
2018-07-13T01:43:31.432Z,56.40
2018-07-13T01:45:59.778Z,56.30
2018-07-13T01:48:28.069Z,56.40
2018-07-13T01:50:56.359Z,56.50
2018-07-13T01:53:24.642Z,56.50
2018-07-13T01:55:52.939Z,56.50
2018-07-13T01:58:21.295Z,56.50
2018-07-13T02:00:49.611Z,56.50
2018-07-13T02:03:18.091Z,56.60
2018-07-13T02:05:46.402Z,56.60
2018-07-13T02:08:14.711Z,56.70
2018-07-13T02:10:43.030Z,56.60
2018-07-13T02:13:11.315Z,56.70
2018-07-13T02:15:39.615Z,56.60
2018-07-13T02:18:07.980Z,56.50
2018-07-13T02:20:36.320Z,56.60
2018-07-13T02:23:04.631Z,56.70
2018-07-13T02:25:33.028Z,56.80
2018-07-13T02:28:01.447Z,56.80
2018-07-13T02:30:29.734Z,56.90
2018-07-13T02:32:58.072Z,56.90
2018-07-13T02:35:26.369Z,57.00
2018-07-13T02:37:55.486Z,57.00
2018-07-13T02:40:23.807Z,57.00
2018-07-13T02:42:52.202Z,57.10
2018-07-13T02:45:20.540Z,57.20
2018-07-13T02:47:48.986Z,57.10
2018-07-13T02:50:17.286Z,57.20
2018-07-13T02:52:45.596Z,57.10
2018-07-13T02:55:13.938Z,57.30
2018-07-13T02:57:42.267Z,57.30
2018-07-13T03:02:38.684Z,57.30
2018-07-13T03:05:07.264Z,57.40
2018-07-13T03:07:35.592Z,57.30
2018-07-13T03:10:04.210Z,57.30
2018-07-13T03:12:32.991Z,57.30
2018-07-13T03:15:01.330Z,57.20
2018-07-13T03:17:29.838Z,57.20
2018-07-13T03:19:58.132Z,57.30
2018-07-13T03:22:26.474Z,57.20
2018-07-13T03:24:54.825Z,57.30
2018-07-13T03:27:23.107Z,57.20
2018-07-13T03:29:51.494Z,57.40
2018-07-13T03:32:19.878Z,57.40
2018-07-13T03:34:48.338Z,57.40
2018-07-13T03:37:16.678Z,57.40
2018-07-13T03:39:45.008Z,57.20
2018-07-13T03:42:13.295Z,57.30
2018-07-13T03:44:41.648Z,57.30
2018-07-13T03:47:09.974Z,57.50
2018-07-13T03:49:38.270Z,57.60
2018-07-13T03:52:07.073Z,57.50
2018-07-13T03:54:35.679Z,57.60
2018-07-13T03:57:04.057Z,57.50
2018-07-13T03:59:32.341Z,57.60
2018-07-13T04:02:00.681Z,57.60
2018-07-13T04:04:28.997Z,57.60
2018-07-13T04:06:57.347Z,57.50
2018-07-13T04:09:25.649Z,57.60
2018-07-13T04:11:54.071Z,57.50
2018-07-13T04:14:22.339Z,57.50
2018-07-13T04:19:18.799Z,57.40
2018-07-13T04:21:47.450Z,57.40
2018-07-13T04:24:15.733Z,57.40
2018-07-13T04:29:13.370Z,57.30
2018-07-13T04:31:41.689Z,57.30
2018-07-13T04:34:10.051Z,57.30
2018-07-13T04:39:09.448Z,57.30
2018-07-13T04:41:37.806Z,57.20
2018-07-13T04:44:06.649Z,57.20
2018-07-13T04:46:35.091Z,57.30
2018-07-13T04:49:03.483Z,57.10
2018-07-13T04:51:31.796Z,57.20
2018-07-13T04:54:00.131Z,57.30
2018-07-13T04:56:28.402Z,57.40
2018-07-13T04:58:56.709Z,57.40
2018-07-13T05:01:25.045Z,57.10
2018-07-13T05:03:53.331Z,57.30
2018-07-13T05:06:21.693Z,57.10
2018-07-13T05:08:49.978Z,57.80
2018-07-13T05:11:18.266Z,57.30
2018-07-13T05:13:46.594Z,57.30
2018-07-13T05:21:11.195Z,57.90
2018-07-13T05:23:39.583Z,58.00
2018-07-13T05:26:07.916Z,58.10
2018-07-13T05:28:36.304Z,57.90
2018-07-13T05:31:04.899Z,58.30
2018-07-13T05:33:33.425Z,58.00
2018-07-13T05:36:02.740Z,58.10
2018-07-13T05:41:00.036Z,58.30
2018-07-13T05:43:29.373Z,58.60
2018-07-13T05:45:57.662Z,58.00
2018-07-13T05:48:26.016Z,58.10
2018-07-13T05:50:54.432Z,58.30
2018-07-13T05:53:22.727Z,58.40
2018-07-13T05:58:19.168Z,58.80
2018-07-13T06:00:47.572Z,59.10
2018-07-13T06:03:16.507Z,59.20
2018-07-13T06:05:44.844Z,59.40
2018-07-13T06:08:13.155Z,59.20
2018-07-13T06:10:41.593Z,59.30
2018-07-13T06:13:09.927Z,59.00
2018-07-13T06:15:38.318Z,58.80
2018-07-13T06:18:06.976Z,59.00
2018-07-13T06:20:35.330Z,58.60
2018-07-13T06:23:03.705Z,58.70
2018-07-13T06:25:32.027Z,58.60
2018-07-13T06:28:00.353Z,58.80
2018-07-13T06:30:28.682Z,59.00
2018-07-13T06:32:56.994Z,58.80
2018-07-13T06:35:25.397Z,58.90
2018-07-13T06:37:53.665Z,58.50
2018-07-13T06:40:21.982Z,58.50
2018-07-13T06:42:50.303Z,58.30
2018-07-13T06:45:18.607Z,58.40
2018-07-13T06:47:47.498Z,58.20
2018-07-13T06:50:15.856Z,57.90
2018-07-13T06:52:44.219Z,57.90
2018-07-13T06:55:14.089Z,57.80
2018-07-13T06:57:53.914Z,57.80
2018-07-13T07:01:26.689Z,58.10
2018-07-13T07:04:28.171Z,57.70
2018-07-13T07:06:56.950Z,57.60
2018-07-13T07:09:26.067Z,57.50
2018-07-13T07:12:17.298Z,57.70
2018-07-13T07:14:45.677Z,57.60
2018-07-13T07:17:14.118Z,57.30
2018-07-13T07:19:42.496Z,57.20
2018-07-13T07:22:10.798Z,57.10
2018-07-13T12:13:41.276Z,53.90
2018-07-13T12:16:09.617Z,51.90
2018-07-13T12:21:06.646Z,51.40
2018-07-13T12:23:34.976Z,51.60
2018-07-13T12:26:03.286Z,51.60
2018-07-13T12:28:31.640Z,51.70
2018-07-13T12:30:59.978Z,51.90
2018-07-13T12:33:29.351Z,51.90
2018-07-13T12:35:57.674Z,51.80
2018-07-13T12:40:54.176Z,51.80
2018-07-13T12:43:22.557Z,51.70
2018-07-13T12:45:50.971Z,51.60
2018-07-13T12:48:19.248Z,51.60
2018-07-13T12:50:47.580Z,51.60
2018-07-13T12:53:15.954Z,51.50
2018-07-13T12:55:44.319Z,51.40
2018-07-13T12:58:12.637Z,51.30
2018-07-13T13:00:40.958Z,51.90
2018-07-13T13:03:09.265Z,51.30
2018-07-13T13:05:37.737Z,51.20
2018-07-13T13:08:05.987Z,51.50
2018-07-13T13:13:02.522Z,51.20
2018-07-13T13:15:30.943Z,51.10
2018-07-13T13:17:59.271Z,50.90
2018-07-13T13:20:27.681Z,50.80
2018-07-13T13:22:56.090Z,50.80
2018-07-13T13:25:24.400Z,51.50
2018-07-13T13:27:52.747Z,50.60
2018-07-13T13:30:21.037Z,50.60
2018-07-13T13:32:49.396Z,50.60
2018-07-13T13:35:17.677Z,50.60
2018-07-13T13:37:46.019Z,50.30
2018-07-13T13:42:42.362Z,50.10
2018-07-13T13:45:10.666Z,49.80
2018-07-13T13:47:38.964Z,50.20
2018-07-13T13:50:07.356Z,49.60
2018-07-13T13:52:36.252Z,49.60
2018-07-13T13:55:04.617Z,49.40
2018-07-13T13:57:32.945Z,49.20
2018-07-13T14:00:01.810Z,49.10
2018-07-13T14:02:30.456Z,49.00
2018-07-13T14:04:59.343Z,49.60
2018-07-13T14:07:28.305Z,48.80
2018-07-13T14:09:56.830Z,48.50
2018-07-13T14:12:25.320Z,48.50
2018-07-13T14:14:53.658Z,48.50
2018-07-13T14:17:21.949Z,48.60
2018-07-13T14:19:50.242Z,48.50
2018-07-13T14:22:18.570Z,48.30
2018-07-13T14:24:47.082Z,48.30
2018-07-13T14:27:15.419Z,49.00
2018-07-13T14:29:44.369Z,48.10
2018-07-13T14:32:12.680Z,48.00
2018-07-13T14:34:41.122Z,48.00
2018-07-13T14:37:09.372Z,47.80
2018-07-13T14:42:05.730Z,47.70
2018-07-13T14:44:34.140Z,47.60
2018-07-13T14:47:02.569Z,47.50
2018-07-13T14:49:30.855Z,47.30
2018-07-13T14:51:59.167Z,47.30
2018-07-13T14:54:27.566Z,47.20
2018-07-13T14:56:55.886Z,47.10
2018-07-13T15:01:52.356Z,46.90
2018-07-13T15:04:20.712Z,46.80
2018-07-13T15:06:49.036Z,46.60
2018-07-13T15:09:18.015Z,46.70
2018-07-13T15:11:46.396Z,46.60
2018-07-13T15:14:14.700Z,46.50
2018-07-13T15:16:44.294Z,46.40
2018-07-13T15:19:12.670Z,46.40
2018-07-13T15:21:41.015Z,46.20
2018-07-13T15:26:38.011Z,46.20
2018-07-13T15:29:06.721Z,46.10
2018-07-13T15:31:34.927Z,45.90
2018-07-13T15:34:03.538Z,45.80
2018-07-13T15:38:59.970Z,45.60
2018-07-13T15:41:28.271Z,45.60
2018-07-13T15:43:57.065Z,45.50
2018-07-13T15:46:25.398Z,45.40
2018-07-13T15:48:54.403Z,45.40
2018-07-13T15:51:23.441Z,45.40
2018-07-13T15:53:53.931Z,45.20
2018-07-13T15:56:22.273Z,45.10
2018-07-13T15:58:50.743Z,45.20
2018-07-13T16:01:19.029Z,45.00
2018-07-13T16:03:47.451Z,45.00
2018-07-13T16:06:16.993Z,44.70
2018-07-13T16:08:45.881Z,45.30
2018-07-13T16:11:14.175Z,44.50
2018-07-13T16:13:42.500Z,44.60
2018-07-13T16:16:11.204Z,44.50
2018-07-13T16:18:39.527Z,44.50
2018-07-13T16:21:07.859Z,44.50
2018-07-13T16:23:36.202Z,44.50
2018-07-13T16:26:04.499Z,44.40
2018-07-13T16:31:00.952Z,44.20
2018-07-13T16:33:29.289Z,44.90
2018-07-13T16:35:57.606Z,44.10
2018-07-13T16:40:53.954Z,44.10
2018-07-13T16:43:22.304Z,44.60
2018-07-13T16:45:50.690Z,43.90
2018-07-13T16:48:18.983Z,43.90
2018-07-13T16:50:48.184Z,43.80
2018-07-13T16:53:16.640Z,43.80
2018-07-13T16:55:44.987Z,43.80
2018-07-13T16:58:13.427Z,43.90
2018-07-13T17:00:41.747Z,43.90
2018-07-13T17:03:10.399Z,43.90
2018-07-13T17:05:38.837Z,43.80
2018-07-13T17:08:08.855Z,43.70
2018-07-13T17:10:38.078Z,43.70
2018-07-13T17:13:06.460Z,43.70
2018-07-13T17:15:35.941Z,43.70
2018-07-13T17:18:04.411Z,43.90
2018-07-13T17:20:32.901Z,43.80
2018-07-13T17:23:01.151Z,44.00
2018-07-13T17:25:29.484Z,44.00
2018-07-13T17:27:58.798Z,44.00
2018-07-13T17:30:27.100Z,43.90
2018-07-13T17:32:56.387Z,44.00
2018-07-13T17:35:24.812Z,43.90
2018-07-13T17:37:53.122Z,44.00
2018-07-13T17:40:21.441Z,44.20
2018-07-13T17:42:49.994Z,44.40
2018-07-13T17:45:18.346Z,44.50
2018-07-13T17:47:46.812Z,44.60
2018-07-13T17:50:15.301Z,45.20
2018-07-13T17:52:43.655Z,46.10
2018-07-13T17:55:12.068Z,46.20
2018-07-13T17:57:40.369Z,46.90
2018-07-13T18:00:08.762Z,46.30
2018-07-13T18:02:37.190Z,46.30
2018-07-13T18:05:05.755Z,46.20
2018-07-13T18:07:34.298Z,46.10
2018-07-13T18:10:02.597Z,46.30
2018-07-13T18:12:31.230Z,46.30
2018-07-13T18:15:00.413Z,46.40
2018-07-13T18:17:28.735Z,46.40
2018-07-13T18:19:57.127Z,46.50
2018-07-13T18:22:26.470Z,46.60
2018-07-13T18:24:54.837Z,46.70
2018-07-13T18:27:23.216Z,46.80
2018-07-13T18:29:51.642Z,47.00
2018-07-13T18:32:19.976Z,47.00
2018-07-13T18:34:48.271Z,47.10
2018-07-13T18:37:17.172Z,47.20
2018-07-13T18:39:45.502Z,47.20
2018-07-13T18:42:13.841Z,47.30
2018-07-13T18:44:42.213Z,47.50
2018-07-13T18:47:10.971Z,47.60
2018-07-13T18:49:39.303Z,47.70
2018-07-13T18:52:08.996Z,47.80
2018-07-13T18:54:37.286Z,48.40
2018-07-13T18:57:06.446Z,48.60
2018-07-13T18:59:34.924Z,48.60
2018-07-13T19:02:03.919Z,48.50
2018-07-13T19:04:32.505Z,48.50
2018-07-13T19:07:00.819Z,48.50
2018-07-13T19:09:29.110Z,48.40
2018-07-13T19:11:57.406Z,48.50
2018-07-13T19:14:25.878Z,48.30
2018-07-13T19:16:54.191Z,48.40
2018-07-13T19:19:22.608Z,48.80
2018-07-13T19:24:19.630Z,49.10
2018-07-13T19:26:47.979Z,49.20
2018-07-13T19:29:16.313Z,49.20
2018-07-13T19:31:44.753Z,49.30
2018-07-13T19:34:13.153Z,49.50
2018-07-13T19:36:42.609Z,49.50
2018-07-13T19:39:10.928Z,49.70
2018-07-13T19:41:39.311Z,49.60
2018-07-13T19:44:07.641Z,49.70
2018-07-13T19:46:36.010Z,49.50
2018-07-13T19:49:04.331Z,49.30
2018-07-13T19:51:32.683Z,49.60
2018-07-13T19:54:01.243Z,49.60
2018-07-13T19:58:57.674Z,50.10
2018-07-13T20:01:26.017Z,50.40
2018-07-13T20:03:54.358Z,50.40
2018-07-13T20:06:22.808Z,51.10
2018-07-13T20:08:51.184Z,50.90
2018-07-13T20:11:19.698Z,50.70
2018-07-13T20:13:48.179Z,50.70
2018-07-13T20:16:16.836Z,50.80
2018-07-13T20:18:45.245Z,50.60
2018-07-13T20:23:41.759Z,51.10
2018-07-13T20:26:10.129Z,51.30
2018-07-13T20:28:38.544Z,51.30
2018-07-13T20:33:41.397Z,52.80
2018-07-13T20:36:09.764Z,60.70
2018-07-13T20:38:38.077Z,57.40
2018-07-13T20:41:06.587Z,57.30
2018-07-13T20:43:34.938Z,58.30
2018-07-13T20:46:03.501Z,58.90
2018-07-13T20:48:32.132Z,60.10
2018-07-13T20:51:01.298Z,58.70
2018-07-13T20:53:29.721Z,58.30
2018-07-13T20:58:26.816Z,60.50
2018-07-13T21:00:55.119Z,61.50
2018-07-13T21:03:23.615Z,61.90
2018-07-13T21:05:51.920Z,62.40
2018-07-13T21:08:20.271Z,61.60
2018-07-13T21:10:48.587Z,61.70
2018-07-13T21:13:16.959Z,61.60
2018-07-13T21:15:45.631Z,61.70
2018-07-13T21:20:42.265Z,61.10
2018-07-13T21:23:10.587Z,61.60
2018-07-13T21:25:38.925Z,61.10
2018-07-13T21:28:08.633Z,61.10
2018-07-13T21:30:36.954Z,60.60
2018-07-13T21:33:05.250Z,60.40
2018-07-13T21:35:33.584Z,60.60
2018-07-13T21:38:01.974Z,60.60
2018-07-13T21:40:30.934Z,60.70
2018-07-13T21:42:59.246Z,60.90
2018-07-13T21:45:27.611Z,60.80
2018-07-13T21:47:55.963Z,60.80
2018-07-13T21:50:24.408Z,60.90
2018-07-13T21:52:52.890Z,61.10
2018-07-13T21:55:21.202Z,61.00
2018-07-13T21:57:49.631Z,61.10
2018-07-13T22:00:17.960Z,61.10
2018-07-13T22:02:46.319Z,61.00
2018-07-13T22:05:14.616Z,61.40
2018-07-13T22:07:42.962Z,61.50
2018-07-13T22:10:11.343Z,61.60
2018-07-13T22:12:39.660Z,61.40
2018-07-13T22:15:09.074Z,61.50
2018-07-13T22:17:37.562Z,61.40
2018-07-13T22:20:06.279Z,61.30
2018-07-13T22:22:34.607Z,62.10
2018-07-13T22:25:04.080Z,61.40
2018-07-13T22:27:32.410Z,61.60
2018-07-13T22:30:00.887Z,61.80
2018-07-13T22:34:57.385Z,61.30
2018-07-13T22:37:25.725Z,60.70
2018-07-13T22:39:55.025Z,60.40
2018-07-13T22:42:23.393Z,59.70
2018-07-13T22:44:52.676Z,59.40
